createdAt,value
2022-08-25T00:01:46.587Z,23.07
2022-08-25T00:06:53.468Z,23.02
2022-08-25T00:11:59.183Z,22.98
2022-08-25T00:17:05.246Z,22.93
2022-08-25T00:22:11.258Z,22.88
2022-08-25T00:27:17.162Z,22.84
2022-08-25T00:32:22.850Z,22.80
2022-08-25T00:37:28.469Z,22.75
2022-08-25T00:42:33.968Z,22.71
2022-08-25T00:47:40.974Z,22.67
2022-08-25T00:52:48.667Z,22.63
2022-08-25T00:57:56.313Z,22.58
2022-08-25T01:03:02.916Z,22.54
2022-08-25T01:08:09.735Z,22.50
2022-08-25T01:13:18.431Z,22.46
2022-08-25T01:18:24.512Z,22.43
2022-08-25T01:23:30.618Z,22.40
2022-08-25T01:28:36.268Z,22.36
2022-08-25T01:33:43.029Z,22.38
2022-08-25T01:38:48.824Z,22.40
2022-08-25T01:43:54.606Z,22.41
2022-08-25T01:49:02.792Z,22.41
2022-08-25T01:54:11.768Z,22.42
2022-08-25T01:59:23.976Z,22.43
2022-08-25T02:04:32.678Z,22.42
2022-08-25T02:09:39.655Z,22.41
2022-08-25T02:14:45.120Z,22.40
2022-08-25T02:19:50.338Z,22.39
2022-08-25T02:24:55.741Z,22.36
2022-08-25T02:30:03.866Z,22.34
2022-08-25T02:35:10.292Z,22.33
2022-08-25T02:40:16.054Z,22.31
2022-08-25T02:45:21.593Z,22.29
2022-08-25T02:50:27.075Z,22.29
2022-08-25T02:55:34.652Z,22.27
2022-08-25T03:00:40.307Z,22.27
2022-08-25T03:05:49.245Z,22.27
2022-08-25T03:10:54.560Z,22.26
2022-08-25T03:16:00.148Z,22.26
2022-08-25T03:21:05.831Z,22.26
2022-08-25T03:26:28.802Z,22.26
2022-08-25T03:31:34.775Z,22.26
2022-08-25T03:36:40.984Z,22.26
2022-08-25T03:41:47.556Z,22.25
2022-08-25T03:46:53.967Z,22.25
2022-08-25T03:51:59.925Z,22.25
2022-08-25T03:57:06.801Z,22.25
2022-08-25T04:02:12.322Z,22.25
2022-08-25T04:07:18.235Z,22.25
2022-08-25T04:12:24.104Z,22.25
2022-08-25T04:17:29.642Z,22.25
2022-08-25T04:22:36.715Z,22.25
2022-08-25T04:27:42.428Z,22.26
2022-08-25T04:32:48.697Z,22.25
2022-08-25T04:37:54.108Z,22.25
2022-08-25T04:42:59.542Z,22.29
2022-08-25T04:48:05.394Z,22.27
2022-08-25T04:53:10.942Z,22.21
2022-08-25T04:58:17.158Z,22.18
2022-08-25T05:03:22.922Z,22.17
2022-08-25T05:08:28.642Z,22.15
2022-08-25T05:13:34.508Z,22.16
2022-08-25T05:18:40.278Z,22.16
2022-08-25T05:23:46.945Z,22.17
2022-08-25T05:28:53.028Z,22.18
2022-08-25T05:33:58.893Z,22.19
2022-08-25T05:39:04.719Z,22.21
2022-08-25T05:44:10.276Z,22.24
2022-08-25T05:49:15.723Z,22.27
2022-08-25T05:54:21.545Z,22.32
2022-08-25T05:59:27.212Z,22.38
2022-08-25T06:04:32.862Z,22.44
2022-08-25T06:09:39.203Z,22.52
2022-08-25T06:14:45.090Z,22.62
2022-08-25T06:19:50.323Z,22.72
2022-08-25T06:24:56.362Z,22.84
2022-08-25T06:30:08.043Z,22.97
2022-08-25T06:35:16.661Z,23.12
2022-08-25T06:40:22.380Z,23.29
2022-08-25T06:45:28.003Z,23.47
2022-08-25T06:50:33.555Z,23.64
2022-08-25T06:55:39.359Z,23.80
2022-08-25T07:00:44.751Z,23.96
2022-08-25T07:05:54.996Z,24.10
2022-08-25T07:11:01.194Z,24.23
2022-08-25T07:16:07.592Z,24.35
2022-08-25T07:21:14.142Z,24.47
2022-08-25T07:26:36.685Z,24.58
2022-08-25T07:31:43.473Z,24.70
2022-08-25T07:36:49.229Z,24.83
2022-08-25T07:41:55.122Z,24.96
2022-08-25T07:47:00.819Z,25.07
2022-08-25T07:52:07.169Z,25.19
2022-08-25T07:57:14.558Z,25.30
2022-08-25T08:02:20.115Z,25.40
2022-08-25T08:07:43.464Z,25.49
2022-08-25T08:12:49.919Z,25.59
2022-08-25T08:17:57.009Z,25.64
2022-08-25T08:23:04.061Z,25.71
2022-08-25T08:28:10.850Z,25.77
2022-08-25T08:33:16.585Z,25.84
2022-08-25T08:38:26.865Z,25.92
2022-08-25T08:43:33.723Z,26.01
2022-08-25T08:48:51.289Z,26.12
2022-08-25T08:53:58.634Z,26.23
2022-08-25T08:59:07.559Z,26.32
2022-08-25T09:04:15.464Z,26.41
2022-08-25T09:09:26.951Z,26.49
2022-08-25T09:14:40.822Z,26.58
2022-08-25T09:20:05.510Z,26.65
2022-08-25T09:25:48.750Z,26.74
2022-08-25T09:30:56.940Z,26.83
2022-08-25T09:36:04.571Z,26.91
2022-08-25T09:41:12.832Z,27.01
2022-08-25T09:46:20.512Z,27.11
2022-08-25T09:51:29.404Z,27.21
2022-08-25T09:56:51.304Z,27.30
2022-08-25T10:01:57.378Z,27.38
2022-08-25T10:07:04.339Z,27.48
2022-08-25T10:12:21.518Z,27.58
2022-08-25T10:17:34.596Z,27.69
2022-08-25T10:22:40.542Z,27.79
2022-08-25T10:27:55.577Z,27.88
2022-08-25T10:33:10.747Z,27.97
2022-08-25T10:38:27.179Z,28.04
2022-08-25T10:43:37.588Z,28.11
2022-08-25T10:48:51.025Z,28.18
2022-08-25T10:54:02.342Z,28.26
2022-08-25T10:59:22.747Z,28.35
2022-08-25T11:04:30.959Z,28.43
2022-08-25T11:09:40.857Z,28.52
2022-08-25T11:14:50.956Z,28.60
2022-08-25T11:19:59.507Z,28.69
2022-08-25T11:25:12.144Z,28.77
2022-08-25T11:30:19.130Z,28.87
2022-08-25T11:35:29.225Z,28.99
2022-08-25T11:40:54.902Z,29.13
2022-08-25T11:46:10.613Z,29.27
2022-08-25T11:51:33.719Z,29.42
2022-08-25T11:56:41.901Z,29.56
2022-08-25T12:02:03.505Z,29.68
2022-08-25T12:07:29.441Z,29.80
2022-08-25T12:12:38.422Z,29.92
2022-08-25T12:17:44.650Z,30.03
2022-08-25T12:23:00.648Z,30.12
2022-08-25T12:28:11.342Z,30.21
2022-08-25T12:33:22.220Z,30.29
2022-08-25T12:38:35.084Z,30.37
2022-08-25T12:43:45.419Z,30.44
2022-08-25T12:48:58.939Z,30.50
2022-08-25T12:54:19.190Z,30.54
2022-08-25T12:59:34.422Z,30.59
2022-08-25T13:05:03.538Z,30.63
2022-08-25T13:10:20.910Z,30.67
2022-08-25T13:15:34.804Z,30.70
2022-08-25T13:20:40.280Z,30.70
2022-08-25T13:25:52.521Z,30.70
2022-08-25T13:31:03.574Z,30.67
2022-08-25T13:36:26.764Z,30.58
2022-08-25T13:41:34.099Z,30.48
2022-08-25T13:46:39.627Z,30.36
2022-08-25T13:51:55.144Z,30.26
2022-08-25T13:57:08.430Z,30.16
2022-08-25T14:02:19.326Z,30.09
2022-08-25T14:07:33.755Z,30.05
2022-08-25T14:12:41.544Z,30.01
2022-08-25T14:17:49.146Z,30.01
2022-08-25T14:22:58.041Z,30.02
2022-08-25T14:28:07.224Z,30.04
2022-08-25T14:33:13.544Z,30.08
2022-08-25T14:38:19.267Z,30.11
2022-08-25T14:43:31.439Z,30.15
2022-08-25T14:48:44.800Z,30.20
2022-08-25T14:53:50.309Z,30.25
2022-08-25T14:58:56.666Z,30.30
2022-08-25T15:04:07.625Z,30.35
2022-08-25T15:09:14.024Z,30.41
2022-08-25T15:14:28.531Z,30.47
2022-08-25T15:19:38.361Z,30.55
2022-08-25T15:24:43.784Z,30.61
2022-08-25T15:29:49.986Z,30.67
2022-08-25T15:34:55.362Z,30.73
2022-08-25T15:40:01.265Z,30.78
2022-08-25T15:45:07.779Z,30.83
2022-08-25T15:50:15.420Z,30.87
2022-08-25T15:55:21.728Z,30.91
2022-08-25T16:00:27.780Z,30.94
2022-08-25T16:05:38.619Z,30.98
2022-08-25T16:10:46.702Z,31.00
2022-08-25T16:15:54.332Z,31.01
2022-08-25T16:21:01.069Z,31.02
2022-08-25T16:26:09.374Z,31.01
2022-08-25T16:31:17.338Z,30.99
2022-08-25T16:36:24.662Z,30.96
2022-08-25T16:41:35.695Z,30.93
2022-08-25T16:46:42.616Z,30.88
2022-08-25T16:51:50.047Z,30.83
2022-08-25T16:57:03.751Z,30.77
2022-08-25T17:02:09.169Z,30.71
2022-08-25T17:07:14.671Z,30.64
2022-08-25T17:12:29.628Z,30.56
2022-08-25T17:17:37.294Z,30.47
2022-08-25T17:22:44.139Z,30.38
2022-08-25T17:27:50.025Z,30.28
2022-08-25T17:32:55.986Z,30.17
2022-08-25T17:38:01.945Z,30.07
2022-08-25T17:43:12.245Z,29.95
2022-08-25T17:48:17.834Z,29.85
2022-08-25T17:53:23.911Z,29.73
2022-08-25T17:58:30.121Z,29.63
2022-08-25T18:03:35.959Z,29.52
2022-08-25T18:08:43.257Z,29.41
2022-08-25T18:13:50.542Z,29.31
2022-08-25T18:18:56.409Z,29.22
2022-08-25T18:24:03.667Z,29.12
2022-08-25T18:29:12.566Z,29.03
2022-08-25T18:34:18.914Z,28.94
2022-08-25T18:39:41.731Z,28.85
2022-08-25T18:44:49.394Z,28.76
2022-08-25T18:49:55.157Z,28.67
2022-08-25T18:55:00.660Z,28.58
2022-08-25T19:00:09.026Z,28.50
2022-08-25T19:05:15.733Z,28.42
2022-08-25T19:10:24.148Z,28.34
2022-08-25T19:15:32.086Z,28.26
2022-08-25T19:20:38.754Z,28.19
2022-08-25T19:25:45.031Z,28.12
2022-08-25T19:30:53.294Z,28.04
2022-08-25T19:35:59.463Z,27.98
2022-08-25T19:41:09.062Z,27.91
2022-08-25T19:46:21.168Z,27.85
2022-08-25T19:51:26.684Z,27.77
2022-08-25T19:56:33.056Z,27.70
2022-08-25T20:01:39.058Z,27.62
2022-08-25T20:06:48.405Z,27.53
2022-08-25T20:11:53.956Z,27.44
2022-08-25T20:17:00.269Z,27.32
2022-08-25T20:22:06.144Z,27.21
2022-08-25T20:27:17.242Z,27.08
2022-08-25T20:32:23.099Z,26.97
2022-08-25T20:37:28.761Z,26.85
2022-08-25T20:42:34.121Z,26.74
2022-08-25T20:47:39.762Z,26.63
2022-08-25T20:52:48.558Z,26.52
2022-08-25T20:57:54.317Z,26.41
2022-08-25T21:02:59.686Z,26.32
2022-08-25T21:08:06.516Z,26.21
2022-08-25T21:13:12.037Z,26.11
2022-08-25T21:18:18.020Z,26.01
2022-08-25T21:23:23.647Z,25.93
2022-08-25T21:28:29.301Z,25.84
2022-08-25T21:33:34.949Z,25.75
2022-08-25T21:38:41.326Z,25.67
2022-08-25T21:43:48.355Z,25.59
2022-08-25T21:48:54.615Z,25.51
2022-08-25T21:54:10.864Z,25.43
2022-08-25T21:59:17.431Z,25.35
2022-08-25T22:04:22.766Z,25.28
2022-08-25T22:09:29.574Z,25.20
2022-08-25T22:14:35.502Z,25.12
2022-08-25T22:19:41.320Z,25.05
2022-08-25T22:24:46.886Z,24.98
2022-08-25T22:29:52.751Z,24.93
2022-08-25T22:34:58.233Z,24.86
2022-08-25T22:40:04.661Z,24.81
2022-08-25T22:45:11.736Z,24.76
2022-08-25T22:50:18.116Z,24.71
2022-08-25T22:55:24.351Z,24.67
2022-08-25T23:00:33.476Z,24.63
2022-08-25T23:05:39.904Z,24.59
2022-08-25T23:10:51.606Z,24.55
2022-08-25T23:15:56.721Z,24.50
2022-08-25T23:21:24.165Z,24.46
2022-08-25T23:26:29.843Z,24.42
2022-08-25T23:31:35.485Z,24.37
2022-08-25T23:36:41.013Z,24.32
2022-08-25T23:41:48.250Z,24.28
2022-08-25T23:46:53.863Z,24.22
2022-08-25T23:51:59.372Z,24.17
2022-08-25T23:57:06.768Z,24.13
